Flight Track Log - Related Links

Times and Time Zones

All times are in EDT time to prevent confusion due to time zone crossing. See the UAL4700 flight status page for this flight to view local times or setup timezone preferences in your user account.

Time Position Orientation Groundspeed Altitude Reporting Facility
EDT Latitude Longitude Course Direction KTS MPH feet Rate Location/Type
Fri 07:01:08 PM 43.6689 -70.2156 270° West 194 223 2,800  Level Boston Center
Fri 07:02:08 PM 43.7169 -70.2194 357° North 220 253 5,700 2,550 Climbing Boston Center
Fri 07:03:00 PM 43.7447 -70.4588 263° West  Level FlightAware Approximate
Fri 07:03:08 PM 43.7533 -70.2814 309° West 215 247 7,900  Level Boston Center
Fri 07:04:00 PM 43.7341 -70.5751 263° West  Level FlightAware Approximate
Fri 07:04:08 PM 43.7636 -70.3789 278° West 245 282 9,600  Level Boston Center
Fri 07:05:00 PM 43.7251 -70.6916 264° West  Level FlightAware Approximate
Fri 07:05:08 PM 43.7553 -70.5086 265° West 297 342 11,000  Level Boston Center
Fri 07:06:00 PM 43.7167 -70.8081 270° West  Level FlightAware Approximate
Fri 07:06:08 PM 43.7428 -70.6294 262° West 346 398 12,300  Level Boston Center
Fri 07:07:08 PM 43.7264 -70.7822 262° West 368 423 13,700 1,350 Climbing Boston Center
Fri 07:08:08 PM 43.6967 -70.9039 251° West 374 430 15,000 1,300 Climbing Boston Center
Fri 07:09:08 PM 43.6569 -71.0397 248° West 385 443 16,300 1,300 Climbing Boston Center
Fri 07:10:08 PM 43.6253 -71.1981 255° West 390 449 17,600 1,100 Climbing Boston Center
Fri 07:11:08 PM 43.5997 -71.3419 256° West 390 449 18,500 900 Climbing Boston Center
Fri 07:12:08 PM 43.5758 -71.4744 256° West 395 455 19,400 900 Climbing Boston Center
Fri 07:13:08 PM 43.5478 -71.6267 256° West 400 460 20,300 900 Climbing Boston Center
Fri 07:14:08 PM 43.5219 -71.7844 257° West 412 474 21,200 850 Climbing Boston Center
Fri 07:15:08 PM 43.4914 -71.9450 255° West 423 487 22,000 400 Climbing Boston Center
Fri 07:16:08 PM 43.4608 -72.1083 256° West 429 494 22,000  Level Boston Center
Fri 07:17:08 PM 43.4278 -72.2742 255° West 441 507 22,000  Level Boston Center
Fri 07:18:20 PM 43.3883 -72.4686 254° West 446 513 22,000  Level Boston Center
Fri 07:19:20 PM 43.3297 -72.6169 242° Southwest 446 513 22,000  Level Boston Center
Fri 07:20:20 PM 43.2647 -72.7594 238° Southwest 440 506 22,000  Level Boston Center
Fri 07:21:20 PM 43.1997 -72.9044 238° Southwest 445 512 22,000  Level Boston Center
Fri 07:22:32 PM 43.1175 -73.0800 237° Southwest 451 519 22,000  Level Boston Center
Fri 07:23:32 PM 43.0500 -73.2272 238° Southwest 451 519 22,000 -250 Level Boston Center
Fri 07:24:32 PM 42.9717 -73.3850 236° Southwest 451 519 21,500 -1,318 Descending Boston Center
Fri 07:25:44 PM 42.8956 -73.5228 233° Southwest 457 526 19,100 -1,909 Descending Boston Center
Fri 07:26:44 PM 42.8125 -73.6825 235° Southwest 442 509 17,300 -1,550 Descending Boston Center
Fri 07:27:44 PM 42.7425 -73.8000 231° Southwest 430 495 16,000 -650 Descending Boston Center
Fri 07:28:44 PM 42.6353 -73.8567 201° Southwest 400 460 16,000 50 Level Boston Center
Fri 07:29:44 PM 42.5392 -73.8942 196° South 400 460 16,100  Climbing Boston Center
Fri 07:30:44 PM 42.4194 -73.9503 199° South 410 472 16,000 -50 Descending Boston Center
Fri 07:31:44 PM 42.3231 -73.9900 197° South 410 472 16,000  Level Boston Center
Fri 07:32:44 PM 42.2056 -74.0433 199° South 403 464 16,000 -50 Level Boston Center
Fri 07:33:44 PM 42.1092 -74.0883 199° South 410 472 15,900  Descending Boston Center
Fri 07:34:44 PM 42.0000 -74.1358 198° South 410 472 16,000  Climbing Boston Center
Fri 07:35:44 PM 41.8847 -74.1858 198° South 410 472 15,900 -1,050 Descending Boston Center
Fri 07:36:44 PM 41.7881 -74.2275 198° South 410 472 13,900 -1,900 Descending Boston Center
Fri 07:37:44 PM 41.6831 -74.2747 199° South 387 445 12,100 -1,350 Descending Boston Center
Fri 07:38:44 PM 41.6169 -74.2533 166° South 307 353 11,200 -1,150 Descending Boston Center
Fri 07:39:44 PM 41.5500 -74.2653 188° South 270 311 9,800 -1,700 Descending Boston Center
Fri 07:40:44 PM 41.4906 -74.3247 217° Southwest 256 295 7,800 -866 Descending Boston Center
Fri 07:43:05 PM 41.3333 -74.4167 204° Southwest 262 302 6,900 -537 Descending New York TRACON
Fri 07:44:05 PM 41.2667 -74.4500 201° Southwest 255 293 6,000 -450 Descending New York TRACON
Fri 07:45:05 PM 41.2000 -74.4667 191° South 250 288 6,000 -50 Level New York TRACON
Fri 07:46:05 PM 41.1500 -74.4167 143° Southeast 246 283 5,900 -500 Descending New York TRACON
Fri 07:47:05 PM 41.1000 -74.3500 135° Southeast 240 276 5,000 -475 Descending New York TRACON
Fri 07:49:00 PM 40.9823 -74.4489 143° Southeast  Level FlightAware Approximate
Fri 07:50:05 PM 40.9500 -74.1833 143° Southeast 227 261 4,000  Level New York TRACON
Fri 07:52:05 PM 40.8667 -74.0833 138° Southeast 188 216 3,000 -500 Descending New York TRACON

Login

Don't have an account? Register now (free) for customized features, flight alerts, and more!